sensor_id;sensor_type;location;lat;lon;timestamp;P1;durP1;ratioP1;P2;durP2;ratioP2
37655;SDS011;23498;50.958;3.124;2022-09-12T00:02:25;14.27;;;11.57;;
37655;SDS011;23498;50.958;3.124;2022-09-12T00:04:51;15.18;;;11.43;;
37655;SDS011;23498;50.958;3.124;2022-09-12T00:07:17;15.05;;;11.68;;
37655;SDS011;23498;50.958;3.124;2022-09-12T00:09:43;14.63;;;11.55;;
37655;SDS011;23498;50.958;3.124;2022-09-12T00:12:09;15.50;;;11.05;;
37655;SDS011;23498;50.958;3.124;2022-09-12T00:14:35;15.27;;;10.90;;
37655;SDS011;23498;50.958;3.124;2022-09-12T00:17:01;14.27;;;11.65;;
37655;SDS011;23498;50.958;3.124;2022-09-12T00:19:27;14.80;;;12.20;;
37655;SDS011;23498;50.958;3.124;2022-09-12T00:21:53;14.15;;;11.25;;
37655;SDS011;23498;50.958;3.124;2022-09-12T00:24:19;17.55;;;12.93;;
37655;SDS011;23498;50.958;3.124;2022-09-12T00:26:46;18.15;;;12.45;;
37655;SDS011;23498;50.958;3.124;2022-09-12T00:29:16;14.55;;;11.48;;
37655;SDS011;23498;50.958;3.124;2022-09-12T00:31:42;16.42;;;12.85;;
37655;SDS011;23498;50.958;3.124;2022-09-12T00:34:08;14.52;;;12.02;;
37655;SDS011;23498;50.958;3.124;2022-09-12T00:36:34;17.08;;;13.05;;
37655;SDS011;23498;50.958;3.124;2022-09-12T00:39:01;16.50;;;12.85;;
37655;SDS011;23498;50.958;3.124;2022-09-12T00:41:31;19.15;;;13.88;;
37655;SDS011;23498;50.958;3.124;2022-09-12T00:43:59;15.23;;;12.65;;
37655;SDS011;23498;50.958;3.124;2022-09-12T00:49:41;16.92;;;13.20;;
37655;SDS011;23498;50.958;3.124;2022-09-12T00:51:42;20.17;;;13.35;;
37655;SDS011;23498;50.958;3.124;2022-09-12T00:54:11;18.80;;;13.45;;
37655;SDS011;23498;50.958;3.124;2022-09-12T00:56:39;16.92;;;13.50;;
37655;SDS011;23498;50.958;3.124;2022-09-12T00:59:07;18.02;;;13.95;;
37655;SDS011;23498;50.958;3.124;2022-09-12T01:01:36;14.85;;;12.48;;
37655;SDS011;23498;50.958;3.124;2022-09-12T01:04:03;16.70;;;13.18;;
37655;SDS011;23498;50.958;3.124;2022-09-12T01:06:32;18.50;;;14.38;;
37655;SDS011;23498;50.958;3.124;2022-09-12T01:09:00;17.73;;;13.68;;
37655;SDS011;23498;50.958;3.124;2022-09-12T01:11:29;18.92;;;14.02;;
37655;SDS011;23498;50.958;3.124;2022-09-12T01:13:55;21.48;;;15.35;;
37655;SDS011;23498;50.958;3.124;2022-09-12T01:16:21;21.27;;;15.30;;
37655;SDS011;23498;50.958;3.124;2022-09-12T01:18:50;17.75;;;14.52;;
37655;SDS011;23498;50.958;3.124;2022-09-12T01:29:08;21.60;;;15.37;;
37655;SDS011;23498;50.958;3.124;2022-09-12T01:34:29;20.80;;;16.17;;
37655;SDS011;23498;50.958;3.124;2022-09-12T01:39:47;19.85;;;15.02;;
37655;SDS011;23498;50.958;3.124;2022-09-12T01:42:19;22.23;;;14.75;;
37655;SDS011;23498;50.958;3.124;2022-09-12T01:53:07;20.85;;;15.85;;
37655;SDS011;23498;50.958;3.124;2022-09-12T02:01:01;22.33;;;16.67;;
37655;SDS011;23498;50.958;3.124;2022-09-12T02:03:30;20.27;;;15.80;;
37655;SDS011;23498;50.958;3.124;2022-09-12T02:06:07;23.42;;;15.75;;
37655;SDS011;23498;50.958;3.124;2022-09-12T02:08:39;20.65;;;15.80;;
37655;SDS011;23498;50.958;3.124;2022-09-12T02:11:07;20.00;;;16.33;;
37655;SDS011;23498;50.958;3.124;2022-09-12T02:13:38;20.23;;;15.82;;
37655;SDS011;23498;50.958;3.124;2022-09-12T02:18:53;21.77;;;16.30;;
37655;SDS011;23498;50.958;3.124;2022-09-12T02:21:21;22.25;;;16.38;;
37655;SDS011;23498;50.958;3.124;2022-09-12T02:23:50;21.50;;;16.30;;
37655;SDS011;23498;50.958;3.124;2022-09-12T02:26:19;21.85;;;16.85;;
37655;SDS011;23498;50.958;3.124;2022-09-12T02:28:45;23.95;;;17.02;;
37655;SDS011;23498;50.958;3.124;2022-09-12T02:36:42;23.10;;;15.82;;
37655;SDS011;23498;50.958;3.124;2022-09-12T02:39:14;19.05;;;15.07;;
37655;SDS011;23498;50.958;3.124;2022-09-12T02:41:44;21.90;;;16.05;;
37655;SDS011;23498;50.958;3.124;2022-09-12T02:44:10;24.08;;;17.30;;
37655;SDS011;23498;50.958;3.124;2022-09-12T02:46:43;23.05;;;16.77;;
37655;SDS011;23498;50.958;3.124;2022-09-12T02:49:11;23.25;;;16.92;;
37655;SDS011;23498;50.958;3.124;2022-09-12T02:51:37;25.60;;;18.10;;
37655;SDS011;23498;50.958;3.124;2022-09-12T02:54:04;25.23;;;17.77;;
37655;SDS011;23498;50.958;3.124;2022-09-12T02:56:31;22.95;;;17.27;;
37655;SDS011;23498;50.958;3.124;2022-09-12T02:59:00;24.23;;;17.33;;
37655;SDS011;23498;50.958;3.124;2022-09-12T03:06:51;22.30;;;17.45;;
37655;SDS011;23498;50.958;3.124;2022-09-12T03:09:29;23.02;;;16.65;;
37655;SDS011;23498;50.958;3.124;2022-09-12T03:22:52;22.75;;;15.10;;
37655;SDS011;23498;50.958;3.124;2022-09-12T03:25:21;24.20;;;15.98;;
37655;SDS011;23498;50.958;3.124;2022-09-12T03:30:18;25.67;;;18.13;;
37655;SDS011;23498;50.958;3.124;2022-09-12T03:32:45;22.10;;;16.00;;
37655;SDS011;23498;50.958;3.124;2022-09-12T03:35:12;23.10;;;16.63;;
37655;SDS011;23498;50.958;3.124;2022-09-12T03:37:39;23.30;;;17.02;;
37655;SDS011;23498;50.958;3.124;2022-09-12T03:40:05;26.40;;;16.67;;
37655;SDS011;23498;50.958;3.124;2022-09-12T03:42:31;23.52;;;17.10;;
37655;SDS011;23498;50.958;3.124;2022-09-12T03:44:57;26.40;;;17.90;;
37655;SDS011;23498;50.958;3.124;2022-09-12T03:47:23;25.05;;;17.77;;
37655;SDS011;23498;50.958;3.124;2022-09-12T03:49:49;21.48;;;16.40;;
37655;SDS011;23498;50.958;3.124;2022-09-12T03:52:16;26.67;;;18.98;;
37655;SDS011;23498;50.958;3.124;2022-09-12T03:54:42;22.83;;;16.85;;
37655;SDS011;23498;50.958;3.124;2022-09-12T03:57:08;25.35;;;17.60;;
37655;SDS011;23498;50.958;3.124;2022-09-12T03:59:34;24.55;;;17.88;;
37655;SDS011;23498;50.958;3.124;2022-09-12T04:02:00;23.20;;;15.85;;
37655;SDS011;23498;50.958;3.124;2022-09-12T04:04:26;23.05;;;17.40;;
37655;SDS011;23498;50.958;3.124;2022-09-12T04:06:52;25.85;;;17.05;;
37655;SDS011;23498;50.958;3.124;2022-09-12T04:09:19;23.13;;;16.05;;
37655;SDS011;23498;50.958;3.124;2022-09-12T04:11:45;25.10;;;16.67;;
37655;SDS011;23498;50.958;3.124;2022-09-12T04:14:11;25.38;;;17.65;;
37655;SDS011;23498;50.958;3.124;2022-09-12T04:16:37;25.63;;;16.90;;
37655;SDS011;23498;50.958;3.124;2022-09-12T04:19:03;24.13;;;17.17;;
37655;SDS011;23498;50.958;3.124;2022-09-12T04:21:29;25.60;;;17.48;;
37655;SDS011;23498;50.958;3.124;2022-09-12T04:23:55;32.33;;;19.08;;
37655;SDS011;23498;50.958;3.124;2022-09-12T04:26:21;24.88;;;17.48;;
37655;SDS011;23498;50.958;3.124;2022-09-12T04:28:47;23.55;;;16.88;;
37655;SDS011;23498;50.958;3.124;2022-09-12T04:31:14;22.73;;;16.67;;
37655;SDS011;23498;50.958;3.124;2022-09-12T04:33:42;23.00;;;16.95;;
37655;SDS011;23498;50.958;3.124;2022-09-12T04:36:12;23.02;;;17.67;;
37655;SDS011;23498;50.958;3.124;2022-09-12T04:38:41;27.70;;;18.88;;
37655;SDS011;23498;50.958;3.124;2022-09-12T04:41:23;31.13;;;20.02;;
37655;SDS011;23498;50.958;3.124;2022-09-12T04:43:51;27.58;;;18.98;;
37655;SDS011;23498;50.958;3.124;2022-09-12T04:46:17;26.30;;;18.17;;
37655;SDS011;23498;50.958;3.124;2022-09-12T04:48:44;28.35;;;18.88;;
37655;SDS011;23498;50.958;3.124;2022-09-12T04:51:17;29.13;;;20.70;;
37655;SDS011;23498;50.958;3.124;2022-09-12T04:53:50;29.35;;;21.25;;
37655;SDS011;23498;50.958;3.124;2022-09-12T04:56:17;27.77;;;19.50;;
37655;SDS011;23498;50.958;3.124;2022-09-12T04:58:44;31.02;;;20.45;;
37655;SDS011;23498;50.958;3.124;2022-09-12T05:01:11;29.80;;;19.40;;
37655;SDS011;23498;50.958;3.124;2022-09-12T05:03:37;28.15;;;18.88;;
37655;SDS011;23498;50.958;3.124;2022-09-12T05:06:05;27.25;;;19.42;;
37655;SDS011;23498;50.958;3.124;2022-09-12T05:08:32;29.95;;;19.50;;
37655;SDS011;23498;50.958;3.124;2022-09-12T05:11:18;31.42;;;19.58;;
37655;SDS011;23498;50.958;3.124;2022-09-12T05:13:44;29.63;;;19.10;;
37655;SDS011;23498;50.958;3.124;2022-09-12T05:16:11;27.33;;;18.58;;
37655;SDS011;23498;50.958;3.124;2022-09-12T05:18:38;30.52;;;20.60;;
37655;SDS011;23498;50.958;3.124;2022-09-12T05:21:05;30.13;;;20.40;;
37655;SDS011;23498;50.958;3.124;2022-09-12T05:23:32;33.25;;;21.63;;
37655;SDS011;23498;50.958;3.124;2022-09-12T05:25:58;26.90;;;18.75;;
37655;SDS011;23498;50.958;3.124;2022-09-12T05:28:27;30.52;;;20.17;;
37655;SDS011;23498;50.958;3.124;2022-09-12T05:31:01;30.95;;;20.02;;
37655;SDS011;23498;50.958;3.124;2022-09-12T05:33:27;29.55;;;19.88;;
37655;SDS011;23498;50.958;3.124;2022-09-12T05:35:53;29.67;;;19.73;;
37655;SDS011;23498;50.958;3.124;2022-09-12T05:38:19;30.85;;;20.65;;
37655;SDS011;23498;50.958;3.124;2022-09-12T05:40:45;27.10;;;19.67;;
37655;SDS011;23498;50.958;3.124;2022-09-12T05:43:11;30.52;;;19.98;;
37655;SDS011;23498;50.958;3.124;2022-09-12T05:45:37;30.13;;;20.10;;
37655;SDS011;23498;50.958;3.124;2022-09-12T05:48:05;24.73;;;18.13;;
37655;SDS011;23498;50.958;3.124;2022-09-12T05:50:31;26.15;;;16.50;;
37655;SDS011;23498;50.958;3.124;2022-09-12T05:52:57;26.55;;;19.25;;
37655;SDS011;23498;50.958;3.124;2022-09-12T05:55:23;25.30;;;18.50;;
37655;SDS011;23498;50.958;3.124;2022-09-12T05:57:49;31.10;;;20.63;;
37655;SDS011;23498;50.958;3.124;2022-09-12T06:00:16;28.15;;;20.13;;
37655;SDS011;23498;50.958;3.124;2022-09-12T06:02:43;26.60;;;19.60;;
37655;SDS011;23498;50.958;3.124;2022-09-12T06:05:09;25.27;;;18.75;;
37655;SDS011;23498;50.958;3.124;2022-09-12T06:07:35;27.98;;;18.73;;
37655;SDS011;23498;50.958;3.124;2022-09-12T06:10:01;31.83;;;20.08;;
37655;SDS011;23498;50.958;3.124;2022-09-12T06:12:29;28.48;;;19.05;;
37655;SDS011;23498;50.958;3.124;2022-09-12T06:14:55;26.60;;;19.05;;
37655;SDS011;23498;50.958;3.124;2022-09-12T06:17:21;24.73;;;18.23;;
37655;SDS011;23498;50.958;3.124;2022-09-12T06:19:47;26.35;;;18.20;;
37655;SDS011;23498;50.958;3.124;2022-09-12T06:22:15;26.15;;;17.38;;
37655;SDS011;23498;50.958;3.124;2022-09-12T06:24:41;27.83;;;18.85;;
37655;SDS011;23498;50.958;3.124;2022-09-12T06:27:08;24.27;;;17.42;;
37655;SDS011;23498;50.958;3.124;2022-09-12T06:29:33;27.77;;;18.42;;
37655;SDS011;23498;50.958;3.124;2022-09-12T06:31:59;25.48;;;15.45;;
37655;SDS011;23498;50.958;3.124;2022-09-12T06:34:26;25.27;;;17.63;;
37655;SDS011;23498;50.958;3.124;2022-09-12T06:36:52;24.83;;;18.77;;
37655;SDS011;23498;50.958;3.124;2022-09-12T06:39:19;24.13;;;17.65;;
37655;SDS011;23498;50.958;3.124;2022-09-12T06:41:45;25.52;;;16.92;;
37655;SDS011;23498;50.958;3.124;2022-09-12T06:44:13;23.77;;;17.33;;
37655;SDS011;23498;50.958;3.124;2022-09-12T06:46:40;26.33;;;16.33;;
37655;SDS011;23498;50.958;3.124;2022-09-12T06:49:06;23.52;;;17.08;;
37655;SDS011;23498;50.958;3.124;2022-09-12T06:51:32;24.08;;;17.45;;
37655;SDS011;23498;50.958;3.124;2022-09-12T06:54:00;27.60;;;17.20;;
37655;SDS011;23498;50.958;3.124;2022-09-12T06:56:26;22.77;;;16.98;;
37655;SDS011;23498;50.958;3.124;2022-09-12T06:58:53;25.88;;;16.73;;
37655;SDS011;23498;50.958;3.124;2022-09-12T07:01:24;25.42;;;16.58;;
37655;SDS011;23498;50.958;3.124;2022-09-12T07:03:54;22.65;;;14.77;;
37655;SDS011;23498;50.958;3.124;2022-09-12T07:06:22;23.85;;;16.35;;
37655;SDS011;23498;50.958;3.124;2022-09-12T07:08:48;19.02;;;14.70;;
37655;SDS011;23498;50.958;3.124;2022-09-12T07:11:15;21.98;;;14.90;;
37655;SDS011;23498;50.958;3.124;2022-09-12T07:13:42;22.67;;;14.68;;
37655;SDS011;23498;50.958;3.124;2022-09-12T07:16:09;21.30;;;14.93;;
37655;SDS011;23498;50.958;3.124;2022-09-12T07:18:35;20.35;;;14.30;;
37655;SDS011;23498;50.958;3.124;2022-09-12T07:21:02;19.27;;;12.85;;
37655;SDS011;23498;50.958;3.124;2022-09-12T07:23:29;20.02;;;13.90;;
37655;SDS011;23498;50.958;3.124;2022-09-12T07:25:56;18.08;;;13.05;;
37655;SDS011;23498;50.958;3.124;2022-09-12T07:28:22;18.73;;;13.02;;
37655;SDS011;23498;50.958;3.124;2022-09-12T07:30:49;18.77;;;13.20;;
37655;SDS011;23498;50.958;3.124;2022-09-12T07:33:17;16.42;;;11.75;;
37655;SDS011;23498;50.958;3.124;2022-09-12T07:35:43;17.20;;;11.52;;
37655;SDS011;23498;50.958;3.124;2022-09-12T07:38:09;17.15;;;10.63;;
37655;SDS011;23498;50.958;3.124;2022-09-12T07:40:35;19.27;;;12.18;;
37655;SDS011;23498;50.958;3.124;2022-09-12T07:43:01;21.67;;;11.70;;
37655;SDS011;23498;50.958;3.124;2022-09-12T07:45:27;17.70;;;11.43;;
37655;SDS011;23498;50.958;3.124;2022-09-12T07:47:53;17.80;;;11.80;;
37655;SDS011;23498;50.958;3.124;2022-09-12T07:50:19;16.70;;;11.57;;
37655;SDS011;23498;50.958;3.124;2022-09-12T07:52:45;39.55;;;14.02;;
37655;SDS011;23498;50.958;3.124;2022-09-12T07:55:11;37.30;;;14.90;;
37655;SDS011;23498;50.958;3.124;2022-09-12T07:57:37;22.90;;;13.73;;
37655;SDS011;23498;50.958;3.124;2022-09-12T08:00:04;16.02;;;10.48;;
37655;SDS011;23498;50.958;3.124;2022-09-12T08:02:32;23.20;;;12.70;;
37655;SDS011;23498;50.958;3.124;2022-09-12T08:04:58;16.63;;;11.82;;
37655;SDS011;23498;50.958;3.124;2022-09-12T08:07:24;17.40;;;12.38;;
37655;SDS011;23498;50.958;3.124;2022-09-12T08:09:51;16.17;;;11.50;;
37655;SDS011;23498;50.958;3.124;2022-09-12T08:12:17;13.15;;;10.45;;
37655;SDS011;23498;50.958;3.124;2022-09-12T08:14:44;12.57;;;9.38;;
37655;SDS011;23498;50.958;3.124;2022-09-12T08:17:12;10.55;;;8.27;;
37655;SDS011;23498;50.958;3.124;2022-09-12T08:19:38;11.48;;;8.70;;
37655;SDS011;23498;50.958;3.124;2022-09-12T08:22:04;12.85;;;8.73;;
37655;SDS011;23498;50.958;3.124;2022-09-12T08:24:30;13.27;;;8.02;;
37655;SDS011;23498;50.958;3.124;2022-09-12T08:26:56;12.30;;;8.07;;
37655;SDS011;23498;50.958;3.124;2022-09-12T08:29:22;12.68;;;8.85;;
37655;SDS011;23498;50.958;3.124;2022-09-12T08:31:48;16.55;;;9.38;;
37655;SDS011;23498;50.958;3.124;2022-09-12T08:34:14;11.68;;;8.02;;
37655;SDS011;23498;50.958;3.124;2022-09-12T08:36:42;12.80;;;8.43;;
37655;SDS011;23498;50.958;3.124;2022-09-12T08:39:10;15.82;;;8.93;;
37655;SDS011;23498;50.958;3.124;2022-09-12T08:41:37;16.20;;;8.07;;
37655;SDS011;23498;50.958;3.124;2022-09-12T08:49:19;13.23;;;8.77;;
37655;SDS011;23498;50.958;3.124;2022-09-12T08:51:49;12.35;;;8.82;;
37655;SDS011;23498;50.958;3.124;2022-09-12T08:54:18;12.60;;;8.65;;
37655;SDS011;23498;50.958;3.124;2022-09-12T08:56:44;12.23;;;7.82;;
37655;SDS011;23498;50.958;3.124;2022-09-12T08:59:11;11.60;;;8.65;;
37655;SDS011;23498;50.958;3.124;2022-09-12T09:01:41;12.23;;;8.40;;
37655;SDS011;23498;50.958;3.124;2022-09-12T09:12:21;9.60;;;6.63;;
37655;SDS011;23498;50.958;3.124;2022-09-12T09:17:27;14.40;;;7.65;;
37655;SDS011;23498;50.958;3.124;2022-09-12T09:25:04;12.27;;;7.88;;
37655;SDS011;23498;50.958;3.124;2022-09-12T09:27:32;13.25;;;7.50;;
37655;SDS011;23498;50.958;3.124;2022-09-12T09:30:00;12.07;;;8.20;;
37655;SDS011;23498;50.958;3.124;2022-09-12T09:32:36;10.30;;;6.38;;
37655;SDS011;23498;50.958;3.124;2022-09-12T09:35:17;10.07;;;6.88;;
37655;SDS011;23498;50.958;3.124;2022-09-12T09:37:51;10.98;;;7.60;;
37655;SDS011;23498;50.958;3.124;2022-09-12T09:45:22;9.73;;;6.28;;
37655;SDS011;23498;50.958;3.124;2022-09-12T09:47:56;11.85;;;7.28;;
37655;SDS011;23498;50.958;3.124;2022-09-12T09:50:23;11.82;;;6.82;;
37655;SDS011;23498;50.958;3.124;2022-09-12T09:52:49;9.38;;;6.50;;
37655;SDS011;23498;50.958;3.124;2022-09-12T09:55:28;8.60;;;6.55;;
37655;SDS011;23498;50.958;3.124;2022-09-12T09:57:55;9.32;;;6.57;;
37655;SDS011;23498;50.958;3.124;2022-09-12T10:00:26;13.25;;;6.65;;
37655;SDS011;23498;50.958;3.124;2022-09-12T10:05:24;9.15;;;5.82;;
37655;SDS011;23498;50.958;3.124;2022-09-12T10:07:52;7.90;;;5.30;;
37655;SDS011;23498;50.958;3.124;2022-09-12T10:10:18;8.27;;;5.95;;
37655;SDS011;23498;50.958;3.124;2022-09-12T10:12:48;38.83;;;7.07;;
37655;SDS011;23498;50.958;3.124;2022-09-12T10:15:18;8.95;;;4.95;;
37655;SDS011;23498;50.958;3.124;2022-09-12T10:17:45;8.57;;;5.20;;
37655;SDS011;23498;50.958;3.124;2022-09-12T10:20:34;6.03;;;3.85;;
37655;SDS011;23498;50.958;3.124;2022-09-12T10:22:59;5.55;;;4.13;;
37655;SDS011;23498;50.958;3.124;2022-09-12T10:25:25;8.48;;;4.90;;
37655;SDS011;23498;50.958;3.124;2022-09-12T10:27:56;7.53;;;4.38;;
37655;SDS011;23498;50.958;3.124;2022-09-12T10:30:23;7.05;;;3.95;;
37655;SDS011;23498;50.958;3.124;2022-09-12T10:32:49;7.53;;;3.80;;
37655;SDS011;23498;50.958;3.124;2022-09-12T10:35:17;5.45;;;3.55;;
37655;SDS011;23498;50.958;3.124;2022-09-12T10:40:21;5.15;;;3.55;;
37655;SDS011;23498;50.958;3.124;2022-09-12T10:42:51;4.72;;;3.20;;
37655;SDS011;23498;50.958;3.124;2022-09-12T10:47:49;5.68;;;3.63;;
37655;SDS011;23498;50.958;3.124;2022-09-12T10:50:25;6.97;;;3.55;;
37655;SDS011;23498;50.958;3.124;2022-09-12T10:55:36;4.78;;;3.20;;
37655;SDS011;23498;50.958;3.124;2022-09-12T10:58:06;10.65;;;3.95;;
37655;SDS011;23498;50.958;3.124;2022-09-12T11:00:36;6.72;;;3.75;;
37655;SDS011;23498;50.958;3.124;2022-09-12T11:03:15;4.47;;;2.95;;
37655;SDS011;23498;50.958;3.124;2022-09-12T11:05:57;5.88;;;2.53;;
37655;SDS011;23498;50.958;3.124;2022-09-12T11:08:35;3.83;;;2.50;;
37655;SDS011;23498;50.958;3.124;2022-09-12T11:13:34;5.72;;;2.35;;
37655;SDS011;23498;50.958;3.124;2022-09-12T11:16:13;3.97;;;2.60;;
37655;SDS011;23498;50.958;3.124;2022-09-12T11:18:55;5.82;;;2.55;;
37655;SDS011;23498;50.958;3.124;2022-09-12T11:24:27;4.43;;;2.70;;
37655;SDS011;23498;50.958;3.124;2022-09-12T11:32:06;4.43;;;2.35;;
37655;SDS011;23498;50.958;3.124;2022-09-12T11:39:45;3.53;;;2.30;;
37655;SDS011;23498;50.958;3.124;2022-09-12T11:42:24;5.05;;;2.63;;
37655;SDS011;23498;50.958;3.124;2022-09-12T11:44:55;4.95;;;1.95;;
37655;SDS011;23498;50.958;3.124;2022-09-12T11:47:23;4.38;;;2.58;;
37655;SDS011;23498;50.958;3.124;2022-09-12T11:49:50;5.07;;;2.78;;
37655;SDS011;23498;50.958;3.124;2022-09-12T11:55:06;5.50;;;2.38;;
37655;SDS011;23498;50.958;3.124;2022-09-12T11:57:48;3.78;;;1.90;;
37655;SDS011;23498;50.958;3.124;2022-09-12T12:00:21;3.47;;;2.00;;
37655;SDS011;23498;50.958;3.124;2022-09-12T12:03:03;4.75;;;2.47;;
37655;SDS011;23498;50.958;3.124;2022-09-12T12:05:33;4.55;;;2.13;;
37655;SDS011;23498;50.958;3.124;2022-09-12T12:08:03;4.57;;;1.92;;
37655;SDS011;23498;50.958;3.124;2022-09-12T12:10:44;3.30;;;1.65;;
37655;SDS011;23498;50.958;3.124;2022-09-12T12:15:58;4.10;;;2.10;;
37655;SDS011;23498;50.958;3.124;2022-09-12T12:18:25;6.25;;;2.47;;
37655;SDS011;23498;50.958;3.124;2022-09-12T12:20:53;5.43;;;2.17;;
37655;SDS011;23498;50.958;3.124;2022-09-12T12:25:53;7.47;;;2.15;;
37655;SDS011;23498;50.958;3.124;2022-09-12T12:31:04;3.78;;;1.80;;
37655;SDS011;23498;50.958;3.124;2022-09-12T12:38:30;4.25;;;1.60;;
37655;SDS011;23498;50.958;3.124;2022-09-12T12:43:41;2.58;;;1.30;;
37655;SDS011;23498;50.958;3.124;2022-09-12T12:46:09;2.83;;;1.63;;
37655;SDS011;23498;50.958;3.124;2022-09-12T12:48:42;2.35;;;1.35;;
37655;SDS011;23498;50.958;3.124;2022-09-12T12:51:20;2.75;;;1.40;;
37655;SDS011;23498;50.958;3.124;2022-09-12T12:56:49;5.28;;;1.73;;
37655;SDS011;23498;50.958;3.124;2022-09-12T12:59:14;4.18;;;1.55;;
37655;SDS011;23498;50.958;3.124;2022-09-12T13:01:45;2.55;;;1.50;;
37655;SDS011;23498;50.958;3.124;2022-09-12T13:11:31;2.92;;;1.55;;
37655;SDS011;23498;50.958;3.124;2022-09-12T13:13:59;3.85;;;1.90;;
37655;SDS011;23498;50.958;3.124;2022-09-12T13:18:55;5.40;;;1.80;;
37655;SDS011;23498;50.958;3.124;2022-09-12T13:21:21;3.38;;;1.80;;
37655;SDS011;23498;50.958;3.124;2022-09-12T13:24:04;4.85;;;1.55;;
37655;SDS011;23498;50.958;3.124;2022-09-12T13:26:34;3.30;;;1.70;;
37655;SDS011;23498;50.958;3.124;2022-09-12T13:29:10;2.85;;;1.67;;
37655;SDS011;23498;50.958;3.124;2022-09-12T13:31:37;2.35;;;1.40;;
37655;SDS011;23498;50.958;3.124;2022-09-12T13:34:06;6.18;;;1.65;;
37655;SDS011;23498;50.958;3.124;2022-09-12T13:41:41;4.00;;;1.75;;
37655;SDS011;23498;50.958;3.124;2022-09-12T13:44:11;3.42;;;1.65;;
37655;SDS011;23498;50.958;3.124;2022-09-12T13:46:39;4.43;;;1.73;;
37655;SDS011;23498;50.958;3.124;2022-09-12T13:49:16;3.55;;;1.73;;
37655;SDS011;23498;50.958;3.124;2022-09-12T13:51:44;4.47;;;1.38;;
37655;SDS011;23498;50.958;3.124;2022-09-12T13:54:13;4.40;;;1.48;;
37655;SDS011;23498;50.958;3.124;2022-09-12T13:56:48;2.85;;;1.50;;
37655;SDS011;23498;50.958;3.124;2022-09-12T13:59:14;4.20;;;1.50;;
37655;SDS011;23498;50.958;3.124;2022-09-12T14:04:20;6.00;;;2.38;;
37655;SDS011;23498;50.958;3.124;2022-09-12T14:07:09;3.28;;;1.90;;
37655;SDS011;23498;50.958;3.124;2022-09-12T14:09:37;5.40;;;1.70;;
37655;SDS011;23498;50.958;3.124;2022-09-12T14:12:03;5.63;;;1.85;;
37655;SDS011;23498;50.958;3.124;2022-09-12T14:14:32;5.00;;;1.90;;
37655;SDS011;23498;50.958;3.124;2022-09-12T14:16:59;3.55;;;1.60;;
37655;SDS011;23498;50.958;3.124;2022-09-12T14:19:26;2.95;;;1.73;;
37655;SDS011;23498;50.958;3.124;2022-09-12T14:21:53;3.90;;;1.90;;
37655;SDS011;23498;50.958;3.124;2022-09-12T14:24:19;4.53;;;1.80;;
37655;SDS011;23498;50.958;3.124;2022-09-12T14:26:49;3.35;;;1.90;;
37655;SDS011;23498;50.958;3.124;2022-09-12T14:29:16;5.00;;;2.40;;
37655;SDS011;23498;50.958;3.124;2022-09-12T14:31:43;4.00;;;2.05;;
37655;SDS011;23498;50.958;3.124;2022-09-12T14:36:40;4.50;;;2.08;;
37655;SDS011;23498;50.958;3.124;2022-09-12T14:39:14;3.58;;;1.73;;
37655;SDS011;23498;50.958;3.124;2022-09-12T14:41:42;4.93;;;1.90;;
37655;SDS011;23498;50.958;3.124;2022-09-12T14:44:14;3.78;;;1.73;;
37655;SDS011;23498;50.958;3.124;2022-09-12T14:46:43;3.05;;;1.77;;
37655;SDS011;23498;50.958;3.124;2022-09-12T14:49:12;5.75;;;1.77;;
37655;SDS011;23498;50.958;3.124;2022-09-12T14:51:47;6.90;;;1.80;;
37655;SDS011;23498;50.958;3.124;2022-09-12T14:57:00;7.50;;;2.30;;
37655;SDS011;23498;50.958;3.124;2022-09-12T15:04:44;3.90;;;1.58;;
37655;SDS011;23498;50.958;3.124;2022-09-12T15:07:30;3.45;;;1.50;;
37655;SDS011;23498;50.958;3.124;2022-09-12T15:10:04;3.33;;;1.67;;
37655;SDS011;23498;50.958;3.124;2022-09-12T15:12:31;3.35;;;1.73;;
37655;SDS011;23498;50.958;3.124;2022-09-12T15:14:58;3.53;;;1.80;;
37655;SDS011;23498;50.958;3.124;2022-09-12T15:17:25;4.35;;;1.70;;
37655;SDS011;23498;50.958;3.124;2022-09-12T15:19:51;5.82;;;1.63;;
37655;SDS011;23498;50.958;3.124;2022-09-12T15:22:17;7.13;;;1.63;;
37655;SDS011;23498;50.958;3.124;2022-09-12T15:24:44;3.30;;;1.65;;
37655;SDS011;23498;50.958;3.124;2022-09-12T15:27:10;3.53;;;1.90;;
37655;SDS011;23498;50.958;3.124;2022-09-12T15:29:37;4.40;;;1.48;;
37655;SDS011;23498;50.958;3.124;2022-09-12T15:32:03;4.93;;;1.48;;
37655;SDS011;23498;50.958;3.124;2022-09-12T15:34:30;2.95;;;1.48;;
37655;SDS011;23498;50.958;3.124;2022-09-12T15:36:56;2.92;;;1.33;;
37655;SDS011;23498;50.958;3.124;2022-09-12T15:39:22;5.25;;;1.40;;
37655;SDS011;23498;50.958;3.124;2022-09-12T15:41:48;3.00;;;1.35;;
37655;SDS011;23498;50.958;3.124;2022-09-12T15:44:14;4.55;;;1.40;;
37655;SDS011;23498;50.958;3.124;2022-09-12T15:46:40;3.10;;;1.70;;
37655;SDS011;23498;50.958;3.124;2022-09-12T15:49:06;4.13;;;1.58;;
37655;SDS011;23498;50.958;3.124;2022-09-12T15:51:32;4.45;;;1.35;;
37655;SDS011;23498;50.958;3.124;2022-09-12T15:53:58;2.92;;;1.30;;
37655;SDS011;23498;50.958;3.124;2022-09-12T15:56:25;4.43;;;1.50;;
37655;SDS011;23498;50.958;3.124;2022-09-12T15:58:51;2.42;;;1.40;;
37655;SDS011;23498;50.958;3.124;2022-09-12T16:01:17;2.45;;;1.33;;
37655;SDS011;23498;50.958;3.124;2022-09-12T16:03:46;3.40;;;1.20;;
37655;SDS011;23498;50.958;3.124;2022-09-12T16:06:12;2.85;;;1.33;;
37655;SDS011;23498;50.958;3.124;2022-09-12T16:08:39;3.65;;;1.30;;
37655;SDS011;23498;50.958;3.124;2022-09-12T16:11:25;3.28;;;1.17;;
37655;SDS011;23498;50.958;3.124;2022-09-12T16:13:51;3.58;;;1.35;;
37655;SDS011;23498;50.958;3.124;2022-09-12T16:16:17;3.63;;;1.20;;
37655;SDS011;23498;50.958;3.124;2022-09-12T16:18:43;3.08;;;1.30;;
37655;SDS011;23498;50.958;3.124;2022-09-12T16:21:09;3.50;;;1.40;;
37655;SDS011;23498;50.958;3.124;2022-09-12T16:23:35;3.35;;;1.60;;
37655;SDS011;23498;50.958;3.124;2022-09-12T16:26:04;2.95;;;1.38;;
37655;SDS011;23498;50.958;3.124;2022-09-12T16:28:31;2.88;;;1.30;;
37655;SDS011;23498;50.958;3.124;2022-09-12T16:31:01;3.90;;;1.10;;
37655;SDS011;23498;50.958;3.124;2022-09-12T16:33:27;2.65;;;1.33;;
37655;SDS011;23498;50.958;3.124;2022-09-12T16:36:00;3.10;;;1.20;;
37655;SDS011;23498;50.958;3.124;2022-09-12T16:38:27;3.30;;;1.20;;
37655;SDS011;23498;50.958;3.124;2022-09-12T16:41:00;2.55;;;1.23;;
37655;SDS011;23498;50.958;3.124;2022-09-12T16:43:26;3.38;;;1.20;;
37655;SDS011;23498;50.958;3.124;2022-09-12T16:46:06;2.70;;;1.20;;
37655;SDS011;23498;50.958;3.124;2022-09-12T16:48:32;3.35;;;1.40;;
37655;SDS011;23498;50.958;3.124;2022-09-12T16:50:58;4.15;;;1.20;;
37655;SDS011;23498;50.958;3.124;2022-09-12T16:53:31;2.20;;;1.25;;
37655;SDS011;23498;50.958;3.124;2022-09-12T16:55:58;1.80;;;1.10;;
37655;SDS011;23498;50.958;3.124;2022-09-12T16:58:24;2.47;;;1.20;;
37655;SDS011;23498;50.958;3.124;2022-09-12T17:00:58;6.00;;;1.50;;
37655;SDS011;23498;50.958;3.124;2022-09-12T17:03:24;3.05;;;1.25;;
37655;SDS011;23498;50.958;3.124;2022-09-12T17:05:57;3.78;;;1.30;;
37655;SDS011;23498;50.958;3.124;2022-09-12T17:08:23;3.17;;;1.17;;
37655;SDS011;23498;50.958;3.124;2022-09-12T17:10:49;2.65;;;1.40;;
37655;SDS011;23498;50.958;3.124;2022-09-12T17:13:15;2.78;;;1.13;;
37655;SDS011;23498;50.958;3.124;2022-09-12T17:15:41;4.68;;;1.20;;
37655;SDS011;23498;50.958;3.124;2022-09-12T17:18:07;4.95;;;1.50;;
37655;SDS011;23498;50.958;3.124;2022-09-12T17:20:36;3.25;;;1.30;;